• Join FlightAware (Why Join?)
  • Login
  • US Flag 
06:37PM EDT


 

Airport Tracker/Info


-or-


 

Live Flight TrackerFlight Track Log ✈ BOE6 ✈ 06-Dec-2011 ✈ KBFI - VGHS / DAC

Flight Track Log - Related Links

Times and Time Zones

All times are in EST time to prevent confusion due to time zone crossing. See the BOE6 flight status page for this flight to view local times or setup timezone preferences in your user account.

Time Position Orientation Groundspeed Altitude Reporting Facility
EST Latitude Longitude Course Direction KTS MPH feet Rate Location/Type
02:03PM 47.5031 -122.2794 151° Southeast 171 197 1,300  Level Seattle Center
02:04PM 47.4608 -122.2450 150° Southeast 211 243 2,500 1,740 Climbing Seattle Center
02:05PM 47.3981 -122.1911 100° East 262 302 4,900 2,400 Climbing Seattle Center
02:06PM 47.3853 -122.0789 63° Northeast 278 320 7,400 2,460 Climbing Seattle Center
02:07PM 47.4206 -121.9758 79° East 284 327 10,000 1,800 Climbing Seattle Center
02:08PM 47.4381 -121.8475 74° East 340 391 11,200 1,620 Climbing Seattle Center
02:09PM 47.4664 -121.7050 79° East 369 425 13,400 2,160 Climbing Seattle Center
02:10PM 47.4872 -121.5514 86° East 394 453 15,600 2,160 Climbing Seattle Center
02:11PM 47.4953 -121.3894 86° East 410 472 17,800 1,920 Climbing Seattle Center
02:12PM 47.5036 -121.1881 86° East 415 478 19,600 1,560 Climbing Seattle Center
02:13PM 47.5117 -121.0156 86° East 422 486 21,000 1,560 Climbing Seattle Center
02:14PM 47.5194 -120.8342 86° East 440 506 22,800 1,500 Climbing Seattle Center
02:15PM 47.5267 -120.6639 87° East 450 518 24,100 1,440 Climbing Seattle Center
02:16PM 47.5339 -120.4717 86° East 463 533 25,800 1,560 Climbing Seattle Center
02:17PM 47.5436 -120.2344 87° East 477 549 27,300 1,200 Climbing Seattle Center
02:18PM 47.5511 -120.0339 87° East 488 562 28,300 960 Climbing Seattle Center
02:19PM 47.5581 -119.8236 90° East 504 580 29,300 960 Climbing Seattle Center
02:20PM 47.5581 -119.6106 97° East 514 592 30,300 1,020 Climbing Seattle Center
02:21PM 47.5397 -119.3975 98° East 521 600 31,400 1,020 Climbing Seattle Center
02:22PM 47.5197 -119.1822 97° East 529 609 32,400 960 Climbing Seattle Center
02:23PM 47.5011 -118.9686 97° East 528 608 33,400 1,020 Climbing Seattle Center
02:24PM 47.4825 -118.7525 97° East 530 610 34,500 1,020 Climbing Seattle Center
02:25PM 47.4636 -118.5381 98° East 529 609 35,500 780 Climbing Seattle Center
02:26PM 47.4439 -118.3283 98° East 523 602 36,200 780 Climbing Seattle Center
02:27PM 47.4208 -118.0742 94° East 523 602 37,200 780 Climbing Seattle Center
02:28PM 47.4117 -117.8678 87° East 512 589 37,800 420 Climbing Seattle Center
02:29PM 47.4178 -117.6597 88° East 509 586 38,100 240 Climbing Seattle Center
02:30PM 47.4231 -117.4514 89° East 510 587 38,400 240 Climbing Seattle Center
02:31PM 47.4258 -117.2428 87° East 513 590 38,700 240 Climbing Seattle Center
02:32PM 47.4331 -117.0411 88° East 514 592 38,900 60 Climbing Seattle Center
02:33PM 47.4397 -116.7953 88° East 511 588 38,900  Level Seattle Center
02:34PM 47.4442 -116.5867 89° East 512 589 39,000  Climbing Seattle Center
02:35PM 47.4475 -116.3758 89° East 516 594 39,000  Level Seattle Center
02:36PM 47.4508 -116.1636 89° East 518 596 39,000 -60 Level Seattle Center
02:37PM 47.4536 -115.9492 89° East 522 601 38,900 -60 Descending Seattle Center
02:38PM 47.4558 -115.7342 89° East 524 603 38,900  Level Seattle Center
02:39PM 47.4586 -115.5308 89° East 525 604 38,900  Level Seattle Center
02:40PM 47.4603 -115.2736 90° East 525 604 39,000  Climbing Seattle Center
02:41PM 47.4611 -115.0578 89° East 528 608 39,000 -120 Level Seattle Center
02:41PM 47.4617 -115.0158 90° East 526 605 38,900 -120 Descending Salt Lake Center
02:42PM 47.4622 -114.8428 90° East 528 608 38,900  Level Seattle Center
02:43PM 47.4631 -114.6281 89° East 529 609 39,000  Climbing Seattle Center
02:44PM 47.4636 -114.5850 90° East 528 608 38,900  Descending Salt Lake Center
02:45PM 47.4628 -114.3703 90° East 529 609 39,000  Climbing Salt Lake Center
02:46PM 47.4625 -114.1569 90° East 527 606 38,900  Descending Salt Lake Center
02:47PM 47.4614 -113.9006 90° East 526 605 39,000  Climbing Salt Lake Center
02:48PM 47.4603 -113.6867 91° East 526 605 38,900  Descending Salt Lake Center
02:49PM 47.4581 -113.4719 91° East 526 605 39,000  Climbing Salt Lake Center
02:50PM 47.4561 -113.2517 91° East 526 605 39,000  Level Salt Lake Center
02:51PM 47.4539 -113.0400 91° East 530 610 39,000 -60 Level Salt Lake Center
02:52PM 47.4508 -112.8178 91° East 533 613 38,900 -60 Descending Salt Lake Center
02:53PM 47.4475 -112.5536 91° East 537 618 38,900  Level Salt Lake Center
02:54PM 47.4436 -112.3342 92° East 536 617 39,000  Climbing Salt Lake Center
02:55PM 47.4392 -112.1150 92° East 538 619 39,000  Level Salt Lake Center
02:56PM 47.4336 -111.8975 92° East 536 617 39,000 -60 Level Salt Lake Center
02:57PM 47.4292 -111.6839 92° East 528 608 38,900 -60 Descending Salt Lake Center
02:58PM 47.4233 -111.4697 92° East 529 609 38,900  Level Salt Lake Center
02:59PM 47.4167 -111.2153 92° East 530 610 39,000  Climbing Salt Lake Center
03:00PM 47.4106 -111.0028 92° East 529 609 39,000 -60 Level Salt Lake Center
03:01PM 47.4044 -110.7889 93° East 529 609 38,900  Descending Salt Lake Center
03:02PM 47.3969 -110.5744 93° East 528 608 39,000  Climbing Salt Lake Center
03:03PM 47.3878 -110.3167 93° East 527 606 38,900  Descending Salt Lake Center
03:04PM 47.3803 -110.1031 93° East 525 604 39,000  Climbing Salt Lake Center
03:05PM 47.3717 -109.8922 93° East 520 598 39,000  Level Salt Lake Center
03:06PM 47.3628 -109.6789 94° East 521 600 39,000  Level Salt Lake Center
03:07PM 47.3533 -109.4636 94° East 525 604 39,000 -60 Level Salt Lake Center
03:08PM 47.3442 -109.2497 94° East 526 605 38,900  Descending Salt Lake Center
03:09PM 47.3322 -108.9933 94° East 524 603 39,000  Climbing Salt Lake Center
03:10PM 47.3214 -108.7800 94° East 525 604 38,900  Descending Salt Lake Center
03:11PM 47.3117 -108.5650 94° East 526 605 39,000  Climbing Salt Lake Center
03:12PM 47.3011 -108.3550 95° East 521 600 38,900  Descending Salt Lake Center
03:13PM 47.2878 -108.1253 95° East 520 598 39,000  Climbing Salt Lake Center
03:14PM 47.2764 -107.9217 96° East 520 598 39,000  Level Salt Lake Center
03:16PM 47.2589 -107.6850 99° East 521 600 39,000  Level Salt Lake Center
03:17PM 47.2381 -107.4847 98° East 519 597 39,000  Level Salt Lake Center
03:18PM 47.2142 -107.2478 98° East 522 601 39,000  Level Salt Lake Center
03:19PM 47.1944 -107.0447 98° East 522 601 39,000  Level Salt Lake Center
03:20PM 47.1706 -106.8083 99° East 523 602 39,000  Level Salt Lake Center
03:21PM 47.1494 -106.6050 99° East 524 603 39,000  Level Salt Lake Center
03:22PM 47.1239 -106.3672 99° East 526 605 39,000  Level Salt Lake Center
03:23PM 47.1056 -106.1950 99° East 526 605 39,000  Level Salt Lake Center
03:24PM 47.0783 -105.9431 99° East 525 604 39,000  Level Salt Lake Center
03:25PM 47.0550 -105.7333 99° East 524 603 39,000  Level Salt Lake Center
03:26PM 47.0317 -105.5253 100° East 522 601 39,000  Level Salt Lake Center
03:27PM 47.0067 -105.3144 100° East 524 603 39,000  Level Salt Lake Center
03:28PM 46.9817 -105.1047 100° East 526 605 39,000  Level Salt Lake Center
03:29PM 46.9511 -104.8539 100° East 525 604 39,000  Level Salt Lake Center
03:30PM 46.9261 -104.6478 101° East 523 602 39,000  Level Salt Lake Center
03:31PM 46.8997 -104.4422 100° East 521 600 39,000  Level Salt Lake Center
03:32PM 46.8739 -104.2375 101° East 519 597 39,000  Level Salt Lake Center
03:33PM 46.8475 -104.0319 101° East 519 597 39,000  Level Salt Lake Center
03:34PM 46.8206 -103.8281 101° East 517 595 39,000  Level Salt Lake Center
03:35PM 46.7881 -103.5822 101° East 518 596 39,000  Level Salt Lake Center
03:36PM 46.7603 -103.3803 101° East 516 594 39,000  Level Salt Lake Center
03:37PM 46.7331 -103.1756 101° East 516 594 39,000  Level Salt Lake Center
03:38PM 46.7053 -102.9725 101° East 515 593 39,000  Level Salt Lake Center
03:39PM 46.6775 -102.7678 104° East 516 594 39,000  Level Salt Lake Center
03:40PM 46.6622 -102.6756 102° East 512 589 39,000  Level Minneapolis Center
03:41PM 46.6322 -102.4764 100° East 512 589 39,000  Level Minneapolis Center
03:42PM 46.6067 -102.2689 102° East 512 589 39,000  Level Minneapolis Center
03:43PM 46.5761 -102.0669 102° East 512 589 39,000  Level Minneapolis Center
03:44PM 46.5472 -101.8656 102° East 512 589 39,000  Level Minneapolis Center
03:45PM 46.5161 -101.6611 101° East 512 589 39,000  Level Minneapolis Center
03:46PM 46.4928 -101.4911 102° East 499 574 39,000  Level Minneapolis Center
03:47PM 46.4631 -101.2903 104° East 504 580 39,000  Level Minneapolis Center
03:48PM 46.4303 -101.0983 102° East 499 574 39,000  Level Minneapolis Center
03:49PM 46.3997 -100.8978 103° East 505 581 39,000  Level Minneapolis Center
03:50PM 46.3683 -100.7036 102° East 505 581 39,000 -300 Level Minneapolis Center
03:51PM 46.3392 -100.5039 103° East 505 581 38,500 -480 Descending Minneapolis Center
03:52PM 46.3072 -100.3100 104° East 500 575 38,100 -300 Descending Minneapolis Center
03:53PM 46.2728 -100.1161 102° East 500 575 38,000 -60 Descending Minneapolis Center
03:54PM 46.2425 -99.9169 104° East 500 575 38,000  Level Minneapolis Center
03:55PM 46.2092 -99.7297 103° East 495 570 38,000  Level Minneapolis Center
03:56PM 46.1764 -99.5278 104° East 495 570 38,000  Level Minneapolis Center
03:57PM 46.1428 -99.3350 105° East 500 575 38,000  Level Minneapolis Center
03:58PM 46.1036 -99.1239 104° East 500 575 38,000  Level Minneapolis Center
03:59PM 46.0728 -98.9442 103° East 500 575 38,000 120 Level Minneapolis Center
04:00PM 46.0406 -98.7461 105° East 505 581 38,300 420 Climbing Minneapolis Center
04:01PM 46.0053 -98.5603 105° East 498 573 38,900 300 Climbing Minneapolis Center
04:02PM 45.9700 -98.3656 104° East 498 573 39,000  Climbing Minneapolis Center
04:03PM 45.9364 -98.1775 107° East 493 567 39,000  Level Minneapolis Center
04:04PM 45.8928 -97.9678 106° East 493 567 39,000  Level Minneapolis Center
04:05PM 45.8561 -97.7828 106° East 486 559 39,000  Level Minneapolis Center
04:06PM 45.8194 -97.5981 104° East 480 552 39,000  Level Minneapolis Center
04:07PM 45.7864 -97.4108 105° East 486 559 39,000  Level Minneapolis Center
04:08PM 45.7511 -97.2267 105° East 486 559 39,000  Level Minneapolis Center
04:09PM 45.7156 -97.0400 105° East 486 559 39,000  Level Minneapolis Center
04:10PM 45.6797 -96.8503 106° East 486 559 39,000  Level Minneapolis Center
04:11PM 45.6469 -96.6850 106° East 486 559 39,000  Level Minneapolis Center
04:12PM 45.6106 -96.5017 107° East 481 554 39,000  Level Minneapolis Center
04:13PM 45.5717 -96.3156 106° East 481 554 39,000  Level Minneapolis Center
04:14PM 45.5344 -96.1331 107° East 481 554 39,000  Level Minneapolis Center
04:15PM 45.4969 -95.9533 106° East 481 554 39,000  Level Minneapolis Center
04:16PM 45.4592 -95.7683 107° East 486 559 39,000  Level Minneapolis Center
04:17PM 45.4172 -95.5683 107° East 486 559 39,000  Level Minneapolis Center
04:18PM 45.3786 -95.3925 106° East 481 554 39,000  Level Minneapolis Center
04:19PM 45.3422 -95.2111 107° East 476 548 39,000  Level Minneapolis Center
04:20PM 45.3031 -95.0297 107° East 481 554 39,000  Level Minneapolis Center
04:21PM 45.2639 -94.8517 109° East 481 554 39,000  Level Minneapolis Center
04:22PM 45.2261 -94.6944 108° East 481 554 39,000  Level Minneapolis Center
04:23PM 45.1864 -94.5169 107° East 476 548 39,000  Level Minneapolis Center
04:24PM 45.1483 -94.3367 108° East 470 541 39,000  Level Minneapolis Center
04:25PM 45.1081 -94.1625 108° East 470 541 39,000  Level Minneapolis Center
04:26PM 45.0672 -93.9856 108° East 470 541 39,000  Level Minneapolis Center
04:27PM 45.0264 -93.8089 108° East 465 535 39,000  Level Minneapolis Center
04:28PM 44.9831 -93.6181 108° East 465 535 39,000  Level Minneapolis Center
04:29PM 44.9436 -93.4447 107° East 465 535 39,000  Level Minneapolis Center
04:30PM 44.9061 -93.2750 107° East 460 529 39,000  Level Minneapolis Center
04:31PM 44.8661 -93.0964 109° East 465 535 39,000  Level Minneapolis Center
04:32PM 44.8281 -92.9414 110° East 459 528 39,000  Level Minneapolis Center
04:33PM 44.7833 -92.7694 109° East 459 528 39,000  Level Minneapolis Center
04:35PM 44.6994 -92.4228 109° East 464 534 39,000  Level Minneapolis Center
04:36PM 44.6561 -92.2456 109° East 464 534 39,000  Level Minneapolis Center
04:37PM 44.6081 -92.0542 110° East 469 540 39,000  Level Minneapolis Center
04:38PM 44.5642 -91.8833 109° East 464 534 39,000  Level Minneapolis Center
04:39PM 44.5200 -91.7069 109° East 464 534 39,000  Level Minneapolis Center
04:40PM 44.4775 -91.5367 109° East 463 533 39,000  Level Minneapolis Center
04:41PM 44.4350 -91.3636 111° Southeast 469 540 39,000  Level Minneapolis Center
04:42PM 44.3858 -91.1881 109° East 469 540 39,000  Level Minneapolis Center
04:43PM 44.3194 -90.9219 110° East 447 514 39,000  Level Chicago Center
04:44PM 44.2736 -90.7467 110° East 471 542 39,000  Level Chicago Center
04:45PM 44.2256 -90.5661 109° East 481 554 39,000  Level Chicago Center
04:46PM 44.1817 -90.3858 113° Southeast 485 558 39,000  Level Chicago Center
04:47PM 44.1269 -90.2056 111° Southeast 502 578 39,000  Level Chicago Center
04:48PM 44.0781 -90.0258 110° East 508 585 39,000  Level Chicago Center
04:49PM 44.0331 -89.8519 111° Southeast 493 567 39,000  Level Chicago Center
04:50PM 43.9817 -89.6700 111° Southeast 493 567 39,000  Level Chicago Center
04:51PM 43.9319 -89.4911 111° Southeast 493 567 39,000  Level Chicago Center
04:52PM 43.8819 -89.3125 111° Southeast 493 567 39,000  Level Chicago Center
04:53PM 43.8339 -89.1369 111° Southeast 486 559 39,000  Level Chicago Center
04:54PM 43.7833 -88.9531 111° Southeast 496 571 39,000  Level Chicago Center
04:55PM 43.7328 -88.7725 111° Southeast 502 578 39,000  Level Chicago Center
04:56PM 43.6817 -88.5922 111° Southeast 502 578 39,000  Level Chicago Center
04:57PM 43.6239 -88.3892 112° Southeast 502 578 39,000  Level Chicago Center
04:58PM 43.5703 -88.2067 112° Southeast 515 593 39,000  Level Chicago Center
04:59PM 43.5183 -88.0303 112° Southeast 508 585 39,000  Level Chicago Center
05:00PM 43.4661 -87.8511 112° Southeast 513 590 39,000  Level Chicago Center
05:01PM 43.4114 -87.6694 113° Southeast 508 585 39,000  Level Chicago Center
05:02PM 43.3567 -87.4911 111° Southeast 508 585 39,000  Level Chicago Center
05:03PM 43.3125 -87.3356 114° Southeast 508 585 39,000  Level Chicago Center
05:04PM 43.2550 -87.1550 113° Southeast 502 578 39,000  Level Chicago Center
05:05PM 43.1992 -86.9719 113° Southeast 508 585 39,000  Level Chicago Center
05:06PM 43.1433 -86.7919 113° Southeast 514 592 39,000  Level Chicago Center
05:07PM 43.0825 -86.5925 113° Southeast 514 592 39,000  Level Chicago Center
05:08PM 43.0258 -86.4106 114° Southeast 514 592 39,000  Level Chicago Center
05:09PM 42.9669 -86.2286 112° Southeast 514 592 39,000  Level Chicago Center
05:10PM 42.9117 -86.0417 115° Southeast 514 592 39,000  Level Chicago Center
05:11PM 42.8500 -85.8606 114° Southeast 520 598 39,000  Level Chicago Center
05:12PM 42.7900 -85.6772 113° Southeast 520 598 39,000  Level Chicago Center
05:13PM 42.7342 -85.4967 114° Southeast 525 604 39,000  Level Chicago Center
05:14PM 42.6739 -85.3167 114° Southeast 525 604 39,000  Level Chicago Center
05:17PM 42.5264 -84.8689 115° Southeast 518 596 39,000  Level Cleveland Center
05:18PM 42.4661 -84.6903 113° Southeast 518 596 39,000 -60 Level Cleveland Center
05:19PM 42.4136 -84.5236 108° East 513 590 38,900 -60 Descending Cleveland Center
05:20PM 42.3678 -84.3353 98° East 520 598 38,900  Level Cleveland Center
05:21PM 42.3453 -84.1258 98° East 546 628 38,900  Level Cleveland Center
05:22PM 42.3228 -83.8972 98° East 554 638 38,900  Level Cleveland Center
05:23PM 42.3014 -83.6939 98° East 555 639 39,000  Climbing Cleveland Center
05:24PM 42.2778 -83.4794 98° East 562 647 39,000  Level Cleveland Center
05:25PM 42.2558 -83.2708 99° East 562 647 39,000 -60 Level Cleveland Center
05:26PM 42.2328 -83.0847 99° East 562 647 38,900  Descending Cleveland Center
05:27PM 42.2081 -82.8706 100° East 567 652 39,000  Climbing Cleveland Center
05:28PM 42.1808 -82.6622 100° East 567 652 39,000  Level Cleveland Center
05:29PM 42.1514 -82.4344 100° East 567 652 39,000  Level Cleveland Center
05:30PM 42.1233 -82.2208 102° East 567 652 39,000  Level Cleveland Center
05:31PM 42.0947 -82.0328 101° East 567 652 39,000  Level Cleveland Center
05:32PM 42.0619 -81.8025 101° East 572 658 39,000  Level Cleveland Center
05:33PM 42.0325 -81.5922 101° East 572 658 39,000  Level Cleveland Center
05:34PM 42.0031 -81.3822 101° East 567 652 39,000  Level Cleveland Center
05:35PM 41.9711 -81.1697 100° East 567 652 39,000  Level Cleveland Center
05:36PM 41.9447 -80.9656 102° East 567 652 39,000  Level Cleveland Center
05:37PM 41.9097 -80.7506 101° East 567 652 39,000  Level Cleveland Center
05:38PM 41.8808 -80.5608 102° East 567 652 39,000  Level Cleveland Center
05:39PM 41.8492 -80.3544 101° East 567 652 39,000  Level Cleveland Center
05:40PM 41.8175 -80.1431 102° East 567 652 39,000  Level Cleveland Center
05:41PM 41.7853 -79.9344 102° East 567 652 39,000  Level Cleveland Center
05:42PM 41.7525 -79.7231 102° East 573 659 39,000  Level Cleveland Center
05:43PM 41.7194 -79.5206 102° East 573 659 39,000  Level Cleveland Center
05:44PM 41.6839 -79.3069 101° East 573 659 39,000  Level Cleveland Center
05:45PM 41.6522 -79.0992 103° East 573 659 39,000  Level Cleveland Center
05:46PM 41.6161 -78.8889 103° East 573 659 39,000  Level Cleveland Center
05:47PM 41.5794 -78.6789 103° East 573 659 39,000  Level Cleveland Center
05:48PM 41.5250 -78.3556 103° East 595 685 39,000  Level New York Center
05:54PM 41.3034 -77.1102 104° East 594 684 39,000  Level FlightAware ADS-B
05:54PM 41.2895 -77.0351 104° East 595 685 39,000  Level FlightAware ADS-B
05:55PM 41.2778 -76.9720 104° East 595 685 39,000  Level FlightAware ADS-B
05:55PM 41.2673 -76.9153 104° East 595 685 39,000  Level FlightAware ADS-B
05:55PM 41.2476 -76.8099 104° East 595 685 39,000  Level FlightAware ADS-B
05:56PM 41.2370 -76.7533 104° East 595 685 39,000  Level FlightAware ADS-B
05:56PM 41.2235 -76.6819 104° East 595 685 39,000  Level FlightAware ADS-B
05:56PM 41.2095 -76.6077 104° East 595 685 39,000  Level FlightAware ADS-B
05:57PM 41.1931 -76.5210 104° East 594 684 39,000  Level FlightAware ADS-B
05:57PM 41.1812 -76.4590 104° East 593 682 39,000  Level FlightAware ADS-B
05:58PM 41.1588 -76.3417 104° East 591 680 39,000  Level FlightAware ADS-B
05:58PM 41.1428 -76.2584 104° East 590 679 39,000  Level FlightAware ADS-B
05:58PM 41.1309 -76.1969 104° East 589 678 39,000  Level FlightAware ADS-B
05:59PM 41.1201 -76.1411 104° East 588 677 39,000  Level FlightAware ADS-B
05:59PM 41.1096 -76.0868 105° East 587 676 39,000  Level FlightAware ADS-B
05:59PM 41.0983 -76.0291 104° East 587 676 39,000  Level FlightAware ADS-B
05:59PM 41.0866 -75.9687 105° East 586 674 39,000  Level FlightAware ADS-B
06:00PM 41.0752 -75.9105 105° East 585 673 39,000  Level FlightAware ADS-B
06:00PM 41.0649 -75.8581 105° East 583 671 39,000  Level FlightAware ADS-B
06:00PM 41.0513 -75.7894 105° East 581 669 39,000  Level FlightAware ADS-B
06:01PM 41.0385 -75.7250 105° East 579 666 39,000  Level FlightAware ADS-B
06:01PM 41.0283 -75.6738 105° East 579 666 39,000  Level FlightAware ADS-B
06:01PM 41.0170 -75.6163 105° East 579 666 39,000  Level FlightAware ADS-B
06:01PM 41.0058 -75.5602 105° East 579 666 39,000  Level FlightAware ADS-B
06:02PM 40.9953 -75.5076 105° East 579 666 39,000  Level FlightAware ADS-B
06:02PM 40.9840 -75.4515 105° East 579 666 39,000  Level FlightAware ADS-B
06:02PM 40.9733 -75.3982 105° East 580 667 39,000  Level FlightAware ADS-B
06:03PM 40.9523 -75.2942 105° East 580 667 39,000  Level FlightAware ADS-B
06:03PM 40.9407 -75.2368 105° East 579 666 39,000  Level FlightAware ADS-B
06:03PM 40.9277 -75.1726 105° East 579 666 39,000  Level FlightAware ADS-B
06:04PM 40.9146 -75.1080 105° East 578 665 39,000  Level FlightAware ADS-B
06:04PM 40.9040 -75.0563 105° East 578 665 39,000  Level FlightAware ADS-B
06:04PM 40.8920 -74.9979 105° East 577 664 39,000  Level FlightAware ADS-B
06:04PM 40.8815 -74.9464 105° East 576 663 39,000  Level FlightAware ADS-B
06:05PM 40.8690 -74.8861 105° East 576 663 39,000  Level FlightAware ADS-B
06:05PM 40.8577 -74.8314 105° East 574 661 39,000  Level FlightAware ADS-B
06:05PM 40.8467 -74.7781 105° East 572 658 39,000  Level FlightAware ADS-B
06:05PM 40.8353 -74.7231 105° East 572 658 39,000  Level FlightAware ADS-B
06:06PM 40.8244 -74.6707 106° East 571 657 39,000  Level FlightAware ADS-B
06:06PM 40.8127 -74.6151 105° East 571 657 39,000  Level FlightAware ADS-B
06:06PM 40.8000 -74.5541 105° East 572 658 39,000  Level FlightAware ADS-B
06:07PM 40.7855 -74.4850 106° East 572 658 39,000  Level FlightAware ADS-B
06:07PM 40.7749 -74.4348 106° East 571 657 39,000  Level FlightAware ADS-B
06:07PM 40.7632 -74.3793 105° East 571 657 39,000  Level FlightAware ADS-B
06:07PM 40.7506 -74.3193 106° East 569 655 39,000  Level FlightAware ADS-B
06:08PM 40.7394 -74.2668 106° East 567 652 39,000  Level FlightAware ADS-B
06:08PM 40.7279 -74.2131 106° East 565 650 39,000  Level FlightAware ADS-B
06:08PM 40.7161 -74.1577 106° East 564 649 39,000  Level FlightAware ADS-B
06:09PM 40.7041 -74.1016 106° East 564 649 39,000  Level FlightAware ADS-B
06:09PM 40.6921 -74.0455 106° East 564 649 39,000  Level FlightAware ADS-B
06:09PM 40.6812 -73.9948 106° East 563 648 39,000  Level FlightAware ADS-B
06:09PM 40.6694 -73.9401 106° East 563 648 39,000  Level FlightAware ADS-B
06:10PM 40.6574 -73.8842 106° East 562 647 39,000  Level FlightAware ADS-B
06:10PM 40.6462 -73.8322 106° East 563 648 39,000  Level FlightAware ADS-B
06:10PM 40.6351 -73.7808 106° East 565 650 39,000  Level FlightAware ADS-B
06:10PM 40.6238 -73.7279 102° East 567 652 39,000  Level FlightAware ADS-B
06:11PM 40.6120 -73.6544 84° East 581 669 39,000  Level FlightAware ADS-B
06:11PM 40.6170 -73.5883 63° Northeast 585 673 39,000  Level FlightAware ADS-B
06:11PM 40.6435 -73.5200 49° Northeast 568 654 39,000  Level FlightAware ADS-B
06:12PM 40.6691 -73.4811 47° Northeast 565 650 39,000  Level FlightAware ADS-B
06:12PM 40.7084 -73.4251 52° Northeast 565 650 39,000  Level FlightAware ADS-B
06:13PM 40.7612 -73.3360 56° Northeast 574 661 39,000  Level FlightAware ADS-B
06:13PM 40.7847 -73.2893 59° Northeast 577 664 39,000  Level FlightAware ADS-B
06:13PM 40.8064 -73.2415 59° Northeast 580 667 39,000  Level FlightAware ADS-B
06:14PM 40.8482 -73.1502 56° Northeast 582 670 39,000  Level FlightAware ADS-B
06:14PM 40.8829 -73.0823 56° Northeast 578 665 39,000  Level FlightAware ADS-B
06:14PM 40.9115 -73.0269 57° Northeast 578 665 39,000  Level FlightAware ADS-B
06:15PM 40.9365 -72.9756 58° Northeast 578 665 39,000  Level FlightAware ADS-B
06:15PM 40.9589 -72.9288 58° Northeast 581 669 39,000  Level FlightAware ADS-B
06:15PM 40.9810 -72.8828 58° Northeast 580 667 39,000  Level FlightAware ADS-B
06:17PM 41.1122 -72.6053 58° Northeast 572 658 39,000  Level Boston Center
06:18PM 41.2000 -72.4181 57° Northeast 577 664 39,000  Level Boston Center
06:19PM 41.2872 -72.2411 58° Northeast 577 664 39,000  Level Boston Center
06:20PM 41.3722 -72.0583 58° Northeast 577 664 39,000  Level Boston Center
06:21PM 41.4569 -71.8778 57° Northeast 577 664 39,000  Level Boston Center
06:22PM 41.5456 -71.6967 57° Northeast 577 664 39,000  Level Boston Center
06:23PM 41.6214 -71.5375 58° Northeast 577 664 39,000 -60 Level Boston Center
06:24PM 41.7053 -71.3556 59° Northeast 572 658 38,900  Descending Boston Center
06:25PM 41.7908 -71.1675 59° Northeast 572 658 39,000  Climbing Boston Center
06:26PM 41.8761 -70.9792 59° Northeast 577 664 39,000  Level Boston Center
06:27PM 41.9692 -70.7703 58° Northeast 583 671 39,000  Level Boston Center
06:28PM 42.0558 -70.5806 59° Northeast 588 677 39,000  Level Boston Center
06:29PM 42.1381 -70.3933 58° Northeast 588 677 39,000  Level Boston Center
06:30PM 42.2242 -70.2056 59° Northeast 588 677 39,000  Level Boston Center
06:31PM 42.3078 -70.0144 59° Northeast 588 677 39,000  Level Boston Center
06:32PM 42.3911 -69.8256 60° Northeast 588 677 39,000  Level Boston Center
06:33PM 42.4742 -69.6336 59° Northeast 588 677 39,000  Level Boston Center
06:34PM 42.5589 -69.4436 62° Northeast 588 677 39,000  Level Boston Center
06:35PM 42.6347 -69.2481 60° Northeast 583 671 39,000  Level Boston Center
06:36PM 42.7169 -69.0572 60° Northeast 583 671 39,000  Level Boston Center
06:37PM 42.8006 -68.8631 60° Northeast 583 671 39,000  Level Boston Center
06:38PM 42.8800 -68.6711 60° Northeast 583 671 39,000  Level Boston Center
06:39PM 42.9533 -68.4994 60° Northeast 583 671 39,000 -60 Level Boston Center
06:40PM 43.0342 -68.3094 61° Northeast 583 671 38,900 -60 Descending Boston Center
06:41PM 43.1125 -68.1164 60° Northeast 588 677 38,900  Level Boston Center
06:42PM 43.1925 -67.9225 60° Northeast 583 671 38,900  Level Boston Center
06:43PM 43.2725 -67.7311 70° East 583 671 39,000  Climbing Boston Center
06:43PM 43.3167 -67.5667 55° Northeast 580 667 39,000  Level Moncton Center
06:44PM 43.4167 -67.3667 63° Northeast 590 679 39,000  Level Moncton Center
06:45PM 43.4833 -67.1833 60° Northeast 580 667 39,000  Level Moncton Center
06:46PM 43.5667 -66.9833 58° Northeast 580 667 39,000  Level Moncton Center
06:47PM 43.6500 -66.8000 58° Northeast 580 667 39,000  Level Moncton Center
06:48PM 43.7333 -66.6167 60° Northeast 580 667 39,000  Level Moncton Center
06:49PM 43.8167 -66.4167 63° Northeast 580 667 39,000  Level Moncton Center
06:50PM 43.8833 -66.2333 62° Northeast 580 667 39,000  Level Moncton Center
06:51PM 43.9667 -66.0167 58° Northeast 570 656 39,000  Level Moncton Center
06:52PM 44.0500 -65.8333 58° Northeast 570 656 39,000  Level Moncton Center
06:53PM 44.1333 -65.6500 63° Northeast 560 644 39,000  Level Moncton Center
06:54PM 44.2000 -65.4667 60° Northeast 560 644 39,000  Level Moncton Center
06:55PM 44.2833 -65.2667 63° Northeast 560 644 39,000  Level Moncton Center
06:56PM 44.3500 -65.0833 60° Northeast 560 644 39,000  Level Moncton Center
06:57PM 44.4333 -64.8833 57° Northeast 560 644 39,000  Level Moncton Center
06:58PM 44.5167 -64.7000 67° East 560 644 39,000  Level Moncton Center
06:59PM 44.5833 -64.4833 57° Northeast 560 644 39,000  Level Moncton Center
07:00PM 44.6667 -64.3000 61° Northeast 560 644 39,000  Level Moncton Center
07:01PM 44.7333 -64.1333 60° Northeast 560 644 39,000  Level Moncton Center
07:02PM 44.8167 -63.9333 65° Northeast 560 644 39,000  Level Moncton Center
07:03PM 44.8833 -63.7333 63° Northeast 550 633 39,000  Level Moncton Center
07:04PM 44.9500 -63.5500 59° Northeast 550 633 39,000  Level Moncton Center
07:05PM 45.0333 -63.3500 63° Northeast 550 633 39,000  Level Moncton Center
07:06PM 45.1000 -63.1667 59° Northeast 550 633 39,000  Level Moncton Center
07:07PM 45.1833 -62.9667 63° Northeast 550 633 39,000  Level Moncton Center
07:08PM 45.2500 -62.7833 59° Northeast 550 633 39,000  Level Moncton Center
07:09PM 45.3333 -62.5833 69° East 550 633 39,000  Level Moncton Center
07:10PM 45.3833 -62.4000 59° Northeast 550 633 39,000  Level Moncton Center
07:11PM 45.4667 -62.2000 63° Northeast 550 633 39,000  Level Moncton Center
07:12PM 45.5333 -62.0167 59° Northeast 550 633 39,000  Level Moncton Center
07:13PM 45.6167 -61.8167 70° East 550 633 39,000  Level Moncton Center
07:14PM 45.6667 -61.6167 64° Northeast 550 633 39,000  Level Moncton Center
07:15PM 45.7333 -61.4167 57° Northeast 550 633 39,000  Level Moncton Center
07:16PM 45.8167 -61.2333 64° Northeast 550 633 39,000  Level Moncton Center
07:17PM 45.8833 -61.0333 64° Northeast 550 633 39,000  Level Moncton Center
07:18PM 45.9500 -60.8333 64° Northeast 550 633 39,000  Level Moncton Center
07:19PM 46.0167 -60.6333 64° Northeast 550 633 39,000  Level Moncton Center
07:20PM 46.0833 -60.4333 64° Northeast 550 633 39,000  Level Moncton Center
07:21PM 46.1500 -60.2333 62° Northeast 550 633 39,000  Level Moncton Center
07:22PM 46.2167 -60.0500 64° Northeast 550 633 39,000  Level Moncton Center
07:23PM 46.2833 -59.8500 64° Northeast 550 633 39,000  Level Moncton Center
07:24PM 46.3500 -59.6500 60° Northeast 550 633 39,000  Level Moncton Center
07:25PM 46.3833 -59.5667 64° Northeast 550 633 39,000  Level Gander Center
07:26PM 46.4500 -59.3667 67° East 540 621 39,000  Level Gander Center
07:26PM 46.4833 -59.2500 68° East 540 621 39,000  Level Moncton Center
07:27PM 46.5333 -59.0667 60° Northeast 540 621 39,000  Level Moncton Center
07:28PM 46.5667 -58.9833 64° Northeast 550 633 39,000  Level Gander Center
07:28PM 46.6167 -58.8333 64° Northeast 550 633 39,000  Level Moncton Center
07:29PM 46.6333 -58.7833 64° Northeast 550 633 39,000  Level Gander Center
07:30PM 46.7000 -58.5833 70° East 550 633 39,000  Level Gander Center
07:31PM 46.7500 -58.3833 61° Northeast 550 633 39,000  Level Gander Center
07:31PM 46.8000 -58.2500 70° East 540 621 39,000  Level Moncton Center
07:32PM 46.8500 -58.0500 60° Northeast 540 621 39,000  Level Moncton Center
07:33PM 46.8833 -57.9667 70° East 550 633 39,000  Level Gander Center
07:34PM 46.9333 -57.7667 62° Northeast 550 633 39,000  Level Gander Center
07:35PM 47.0000 -57.5833 72° East 550 633 39,000  Level Gander Center
07:35PM 47.0333 -57.4333 54° Northeast 540 621 39,000  Level Moncton Center
07:36PM 47.0667 -57.3667 70° East 540 621 39,000  Level Gander Center
07:37PM 47.1167 -57.1667 61° Northeast 550 633 39,000  Level Gander Center
07:37PM 47.1667 -57.0333 59° Northeast 550 633 39,000  Level Moncton Center
07:38PM 47.2000 -56.9500 70° East 550 633 39,000  Level Gander Center
07:38PM 47.2333 -56.8167 70° East 540 621 39,000  Level Moncton Center
07:39PM 47.2833 -56.6167 70° East 540 621 39,000  Level Moncton Center
07:40PM 47.3333 -56.4167 54° Northeast 550 633 39,000  Level Moncton Center
07:41PM 47.3667 -56.3500 67° East 550 633 39,000  Level Gander Center
07:42PM 47.4333 -56.1167 64° Northeast 540 621 39,000  Level Gander Center
07:42PM 47.4667 -56.0167 72° East 540 621 39,000  Level Moncton Center
07:43PM 47.5167 -55.7833 62° Northeast 540 621 39,000  Level Moncton Center
07:44PM 47.5833 -55.6000 72° East 550 633 39,000  Level Moncton Center
07:45PM 47.6333 -55.3667 62° Northeast 540 621 39,000  Level Moncton Center
07:46PM 47.7000 -55.1833 67° East 550 633 39,000  Level Moncton Center
07:47PM 47.7667 -54.9500 73° East 550 633 39,000  Level Moncton Center
07:48PM 47.7833 -54.8667 68° East 550 633 39,000  Level Gander Center
07:49PM 47.8333 -54.6833 70° East 550 633 39,000  Level Gander Center
07:49PM 47.8667 -54.5500 73° East 550 633 39,000  Level Moncton Center
07:50PM 47.8833 -54.4667 65° Northeast 550 633 39,000  Level Gander Center
07:51PM 47.9500 -54.2500 71° East 550 633 39,000  Level Gander Center
07:52PM 48.0000 -54.0333 65° Northeast 560 644 39,000  Level Gander Center
07:53PM 48.0667 -53.8167 72° East 560 644 39,000  Level Gander Center
07:54PM 48.1167 -53.5833 69° East 550 633 39,000  Level Gander Center
07:55PM 48.1667 -53.3833 71° East 550 633 39,000  Level Gander Center
07:56PM 48.2167 -53.1667 67° East 560 644 39,000  Level Gander Center
07:57PM 48.2833 -52.9333 67° East 550 633 39,000  Level Gander Center
07:57PM 48.3167 -52.8167 71° East 560 644 39,000  Level Moncton Center
07:58PM 48.3667 -52.6000 73° East 560 644 39,000  Level Moncton Center
07:59PM 48.3833 -52.5167 71° East 560 644 39,000  Level Gander Center
08:00PM 48.4333 -52.3000 68° East 570 656 39,000  Level Gander Center
08:01PM 48.4833 -52.1167 65° Northeast 570 656 39,000  Level Gander Center
08:02PM 48.5500 -51.9000 77° East 570 656 39,000  Level Gander Center
08:02PM 48.5833 -51.6833 69° East 560 644 39,000  Level Moncton Center
08:03PM 48.6000 -51.6167 65° Northeast 560 644 39,000  Level Gander Center
08:04PM 48.6667 -51.4000 71° East 570 656 39,000  Level Gander Center
08:05PM 48.7167 -51.1833 72° East 570 656 39,000  Level Gander Center
08:06PM 48.7667 -50.9500 78° East 570 656 39,000  Level Gander Center
08:07PM 48.8000 -50.7000 60° Northeast 570 656 39,000  Level Gander Center
08:07PM 48.8500 -50.5667 77° East 580 667 39,000  Level Moncton Center
08:08PM 48.8833 -50.3500 63° Northeast 580 667 39,000  Level Moncton Center
08:09PM 48.9167 -50.2500 73° East 580 667 39,000  Level Gander Center
08:10PM 48.9500 -50.0833 53° Northeast 580 667 39,000  Level Gander Center
08:10PM 48.9833 -50.0167 76° East 580 667 39,000  Level Gander Center
08:11PM 49.0167 -49.8167 69° East 580 667 39,000  Level Gander Center
08:12PM 49.0667 -49.6167 65° Northeast 580 667 39,000  Level Gander Center
08:13PM 49.1333 -49.4000 77° East 580 667 39,000  Level Gander Center
08:14PM 49.1667 -49.1833 68° East 580 667 39,000  Level Gander Center
08:15PM 49.2333 -48.9333 65° Northeast 580 667 39,000  Level Gander Center
08:16PM 49.3000 -48.7167 73° East 580 667 39,000  Level Gander Center
08:17PM 49.3500 -48.4667 72° East 580 667 39,000  Level Gander Center
08:18PM 49.4000 -48.2333 70° East 580 667 39,000  Level Gander Center
08:19PM 49.4500 -48.0167 73° East 580 667 39,000  Level Gander Center
08:19PM 49.4667 -47.9333 73° East 580 667 39,000  Level Gander Center
08:20PM 49.5000 -47.7667 65° Northeast 580 667 39,000  Level Gander Center
08:21PM 49.5667 -47.5500 73° East 580 667 39,000  Level Gander Center
08:21PM 49.5833 -47.4667 72° East 580 667 39,000  Level Gander Center
08:22PM 49.6333 -47.2333 70° East 580 667 39,000  Level Gander Center
08:29PM 49.9845 -45.6918 78° East  Level FlightAware Approximate
08:37PM 50.2023 -43.9746 67° East  Level FlightAware Approximate
08:45PM 50.6184 -42.3481 82° East  Level FlightAware Approximate
08:53PM 50.7533 -40.5886 74° East  Level FlightAware Approximate
09:01PM 51.0410 -38.9256 91° East  Level FlightAware Approximate
09:09PM 51.0071 -37.1411 92° East  Level FlightAware Approximate
09:17PM 50.9461 -35.3602 94° East  Level FlightAware Approximate
09:25PM 50.8581 -33.5851 95° East  Level FlightAware Approximate
09:33PM 50.7432 -31.8176 97° East  Level FlightAware Approximate
09:41PM 50.6018 -30.0599 100° East  Level FlightAware Approximate
09:49PM 50.3943 -28.3249 88° East  Level FlightAware Approximate
09:57PM 50.4286 -26.6288 113° Southeast  Level FlightAware Approximate
10:05PM 49.9814 -25.0194 100° East  Level FlightAware Approximate
10:13PM 49.7768 -23.3098 117° Southeast  Level FlightAware Approximate
10:21PM 49.2530 -21.7799 118° Southeast  Level FlightAware Approximate
10:29PM 48.7094 -20.2827 121° Southeast  Level FlightAware Approximate
10:37PM 48.1281 -18.8350 122° Southeast  Level FlightAware Approximate
10:45PM 47.5291 -17.4203 123° Southeast  Level FlightAware Approximate
10:53PM 46.9130 -16.0379 124° Southeast  Level FlightAware Approximate
11:01PM 46.2807 -14.6874 125° Southeast  Level FlightAware Approximate
11:09PM 45.6328 -13.3680 120° Southeast  Level FlightAware Approximate
11:17PM 45.0639 -12.0002 82° East  Level FlightAware Approximate
11:25PM 45.2113 -10.4221 76° East  Level FlightAware Approximate
11:33PM 45.4777 -8.8700 77° East  Level FlightAware Approximate
11:41PM 45.7229 -7.3038 78° East  Level FlightAware Approximate
11:49PM 45.9466 -5.7243 79° East  Level FlightAware Approximate
11:57PM 46.1483 -4.1327 80° East  Level FlightAware Approximate
12:05AM 46.3278 -2.5301 81° East  Level FlightAware Approximate
12:13AM 46.4847 -0.9175 83° East  Level FlightAware Approximate
12:21AM 46.6189 0.7037 84° East  Level FlightAware Approximate
12:29AM 46.7300 2.3322 85° East  Level FlightAware Approximate
12:37AM 46.8180 3.9668 86° East  Level FlightAware Approximate
12:45AM 46.8826 5.6061 124° Southeast  Level FlightAware Approximate
12:53AM 46.2691 6.9189 78° East  Level FlightAware Approximate
01:01AM 46.4831 8.5167 80° East  Level FlightAware Approximate
01:09AM 46.6747 10.1264 81° East  Level FlightAware Approximate
01:17AM 46.8436 11.7470 82° East  Level FlightAware Approximate
01:25AM 46.9857 13.3776 83° East  Level FlightAware Approximate
01:33AM 47.1102 15.0155 84° East  Level FlightAware Approximate
01:41AM 47.2087 16.6606 85° East  Level FlightAware Approximate
01:49AM 47.2865 18.3108 87° East  Level FlightAware Approximate
01:57AM 47.3380 19.9653 88° East  Level FlightAware Approximate
02:05AM 47.3656 21.6223 89° East  Level FlightAware Approximate
02:13AM 47.3694 23.2803 90° East  Level FlightAware Approximate
02:21AM 47.3492 24.9377 92° East  Level FlightAware Approximate
02:29AM 47.3052 26.5932 93° East  Level FlightAware Approximate
02:37AM 47.2374 28.2451 94° East  Level FlightAware Approximate
02:45AM 47.1459 29.8921 96° East  Level FlightAware Approximate
02:53AM 47.0258 31.5319 96° East  Level FlightAware Approximate
03:01AM 46.8878 33.1646 98° East  Level FlightAware Approximate
03:09AM 46.7267 34.7882 99° East  Level FlightAware Approximate
03:17AM 46.5427 36.4016 100° East  Level FlightAware Approximate
03:25AM 46.3330 38.0023 101° East  Level FlightAware Approximate
03:33AM 46.1039 39.5911 102° East  Level FlightAware Approximate
03:41AM 45.8535 41.1663 103° East  Level FlightAware Approximate
03:49AM 45.5816 42.7268 105° East  Level FlightAware Approximate
03:57AM 45.2887 44.2717 106° East  Level FlightAware Approximate
04:05AM 44.9752 45.8001 107° East  Level FlightAware Approximate
04:13AM 44.6415 47.3114 108° East  Level FlightAware Approximate
04:21AM 44.2881 48.8050 109° East  Level FlightAware Approximate
04:29AM 43.9155 50.2801 110° East  Level FlightAware Approximate
04:37AM 43.5242 51.7365 111° Southeast  Level FlightAware Approximate
04:45AM 43.1146 53.1736 112° Southeast  Level FlightAware Approximate
04:53AM 42.6873 54.5912 113° Southeast  Level FlightAware Approximate
05:01AM 42.2428 55.9891 114° Southeast  Level FlightAware Approximate
05:09AM 41.7815 57.3671 115° Southeast  Level FlightAware Approximate
05:17AM 41.3040 58.7250 116° Southeast  Level FlightAware Approximate
05:25AM 40.8107 60.0628 116° Southeast  Level FlightAware Approximate
05:33AM 40.3023 61.3806 117° Southeast  Level FlightAware Approximate
05:41AM 39.7791 62.6785 118° Southeast  Level FlightAware Approximate
05:49AM 39.2416 63.9565 119° Southeast  Level FlightAware Approximate
05:57AM 38.6927 65.2164 120° Southeast  Level FlightAware Approximate
06:05AM 38.1277 66.4549 121° Southeast  Level FlightAware Approximate
06:13AM 37.5499 67.6741 121° Southeast  Level FlightAware Approximate
06:21AM 36.9597 68.8744 122° Southeast  Level FlightAware Approximate
06:29AM 36.3577 70.0560 123° Southeast  Level FlightAware Approximate
06:37AM 35.7442 71.2193 123° Southeast  Level FlightAware Approximate
06:45AM 35.1196 72.3646 124° Southeast  Level FlightAware Approximate
06:53AM 34.4845 73.4924 125° Southeast  Level FlightAware Approximate
07:01AM 33.8391 74.6030 125° Southeast  Level FlightAware Approximate
07:09AM 33.1840 75.6968 126° Southeast  Level FlightAware Approximate
07:17AM 32.5194 76.7743 127° Southeast  Level FlightAware Approximate
07:25AM 31.8458 77.8358 127° Southeast  Level FlightAware Approximate
07:33AM 31.1635 78.8819 128° Southeast  Level FlightAware Approximate
07:41AM 30.4728 79.9129 128° Southeast  Level FlightAware Approximate
07:49AM 29.7742 80.9293 129° Southeast  Level FlightAware Approximate
07:57AM 29.0679 81.9315 129° Southeast  Level FlightAware Approximate
08:05AM 28.3600 82.9255 130° Southeast  Level FlightAware Approximate
08:13AM 27.6333 83.8947 130° Southeast  Level FlightAware Approximate
08:21AM 26.9029 84.8527 130° Southeast  Level FlightAware Approximate
08:29AM 26.6667 85.1667 130° Southeast  Level FlightAware Approximate